createdAt,value
2019-05-09T00:00:04.435Z,102.6
2019-05-09T00:01:04.297Z,102.6
2019-05-09T00:02:03.762Z,102.4
2019-05-09T00:03:03.909Z,102.9
2019-05-09T00:04:03.805Z,101
2019-05-09T00:05:04.037Z,103.3
2019-05-09T00:06:04.973Z,102.9
2019-05-09T00:07:03.924Z,104
2019-05-09T00:08:03.867Z,102.9
2019-05-09T00:09:04.151Z,102.6
2019-05-09T00:10:04.440Z,103.1
2019-05-09T00:11:04.034Z,103.1
2019-05-09T00:12:04.127Z,103.6
2019-05-09T00:13:03.728Z,103.6
2019-05-09T00:14:05.011Z,104
2019-05-09T00:15:04.990Z,103.6
2019-05-09T00:16:04.047Z,102.9
2019-05-09T00:17:04.153Z,103.6
2019-05-09T00:18:04.320Z,103.8
2019-05-09T00:19:04.038Z,102.4
2019-05-09T00:20:03.956Z,103.3
2019-05-09T00:21:04.492Z,104.7
2019-05-09T00:22:03.668Z,103.3
2019-05-09T00:23:03.676Z,103.6
2019-05-09T00:24:03.972Z,103.3
2019-05-09T00:25:04.140Z,103.8
2019-05-09T00:26:04.578Z,102.9
2019-05-09T00:27:04.260Z,102.9
2019-05-09T00:28:04.486Z,105
2019-05-09T00:29:04.150Z,103.3
2019-05-09T00:30:04.208Z,104.5
2019-05-09T00:31:03.805Z,103.1
2019-05-09T00:32:03.871Z,105.9
2019-05-09T00:33:04.073Z,106.1
2019-05-09T00:34:04.615Z,107.5
2019-05-09T00:35:04.332Z,106.4
2019-05-09T00:36:04.710Z,107.5
2019-05-09T00:37:03.478Z,107.3
2019-05-09T00:38:04.714Z,107.8
2019-05-09T00:39:04.416Z,107.8
2019-05-09T00:40:04.361Z,106.4
2019-05-09T00:41:04.151Z,107.8
2019-05-09T00:42:04.791Z,104.5
2019-05-09T00:43:04.414Z,104
2019-05-09T00:44:03.732Z,104
2019-05-09T00:45:04.482Z,101
2019-05-09T00:46:04.737Z,102.4
2019-05-09T00:47:04.567Z,101
2019-05-09T00:48:03.813Z,101.5
2019-05-09T00:49:05.427Z,102.2
2019-05-09T00:50:05.461Z,101
2019-05-09T00:51:03.877Z,101.2
2019-05-09T00:52:03.938Z,100.3
2019-05-09T00:53:03.432Z,100.5
2019-05-09T00:54:04.540Z,99.1
2019-05-09T00:55:04.277Z,100.8
2019-05-09T00:56:04.694Z,100.1
2019-05-09T00:57:03.950Z,101.9
2019-05-09T00:58:04.581Z,99.1
2019-05-09T00:59:04.727Z,99.6
2019-05-09T01:00:04.367Z,99.6
2019-05-09T01:01:04.872Z,98.7
2019-05-09T01:02:04.404Z,99.4
2019-05-09T01:03:03.976Z,98
2019-05-09T01:04:04.782Z,97.7
2019-05-09T01:05:04.620Z,97.5
2019-05-09T01:06:04.791Z,96.8
2019-05-09T01:07:03.970Z,96.1
2019-05-09T01:08:04.561Z,94.2
2019-05-09T01:09:04.578Z,95.6
2019-05-09T01:10:04.689Z,94.9
2019-05-09T01:11:15.834Z,94.2
2019-05-09T01:12:04.485Z,94
2019-05-09T01:13:04.001Z,94
2019-05-09T01:14:03.970Z,94.5
2019-05-09T01:15:03.774Z,94.7
2019-05-09T01:16:05.031Z,94
2019-05-09T01:17:04.632Z,94.7
2019-05-09T01:18:04.894Z,94.7
2019-05-09T01:19:04.053Z,93.1
2019-05-09T01:20:03.862Z,93.8
2019-05-09T01:21:04.418Z,94.2
2019-05-09T01:22:04.145Z,92.1
2019-05-09T01:23:03.849Z,92.8
2019-05-09T01:24:04.077Z,93.3
2019-05-09T01:25:04.586Z,92.4
2019-05-09T01:26:04.399Z,92.8
2019-05-09T01:27:04.136Z,92.1
2019-05-09T01:28:03.764Z,91.4
2019-05-09T01:29:04.804Z,92.8
2019-05-09T01:30:05.164Z,90
2019-05-09T01:31:04.575Z,90.3
2019-05-09T01:32:03.852Z,90.3
2019-05-09T01:33:04.067Z,90.3
2019-05-09T01:34:04.454Z,88.2
2019-05-09T01:35:04.166Z,88.2
2019-05-09T01:36:04.165Z,88.9
2019-05-09T01:37:03.884Z,88.9
2019-05-09T01:38:03.987Z,89.6
2019-05-09T01:39:03.644Z,90.7
2019-05-09T01:40:04.568Z,91
2019-05-09T01:41:04.421Z,93.1
2019-05-09T01:42:03.745Z,91.4
2019-05-09T01:43:04.883Z,92.6
2019-05-09T01:44:04.416Z,94.7
2019-05-09T01:45:04.036Z,93.3
2019-05-09T01:46:04.212Z,95.2
2019-05-09T01:47:04.289Z,93.3
2019-05-09T01:48:03.672Z,94.5
2019-05-09T01:49:03.850Z,93.8
2019-05-09T01:50:04.289Z,94.9
2019-05-09T01:51:03.761Z,92.8
2019-05-09T01:52:04.032Z,94.7
2019-05-09T01:53:04.442Z,94.9
2019-05-09T01:54:04.090Z,93.1
2019-05-09T01:55:04.019Z,94
2019-05-09T01:56:04.188Z,92.6
2019-05-09T01:57:03.888Z,92.1
2019-05-09T01:58:03.659Z,91.7
2019-05-09T01:59:03.709Z,93.1
2019-05-09T02:00:04.455Z,92.6
2019-05-09T02:01:04.006Z,93.5
2019-05-09T02:02:09.322Z,94.5
2019-05-09T02:03:03.576Z,94
2019-05-09T02:04:04.470Z,95.6
2019-05-09T02:05:04.453Z,96.1
2019-05-09T02:06:04.013Z,97.7
2019-05-09T02:07:04.623Z,96.6
2019-05-09T02:08:03.639Z,97
2019-05-09T02:09:03.832Z,98.2
2019-05-09T02:10:03.780Z,98.9
2019-05-09T02:11:04.274Z,98.9
2019-05-09T02:12:04.541Z,98.7
2019-05-09T02:13:03.669Z,98.4
2019-05-09T02:14:04.499Z,98.9
2019-05-09T02:15:04.264Z,98
2019-05-09T02:16:03.730Z,98
2019-05-09T02:17:03.852Z,98
2019-05-09T02:18:05.657Z,99.4
2019-05-09T02:19:04.382Z,99.6
2019-05-09T02:20:04.377Z,100.3
2019-05-09T02:21:04.331Z,100.5
2019-05-09T02:22:03.938Z,100.1
2019-05-09T02:23:04.053Z,99.6
2019-05-09T02:24:03.667Z,99.1
2019-05-09T02:25:04.622Z,100.3
2019-05-09T02:26:04.309Z,99.8
2019-05-09T02:27:04.265Z,100.1
2019-05-09T02:28:03.826Z,99.8
2019-05-09T02:29:03.766Z,100.8
2019-05-09T02:30:06.568Z,98.9
2019-05-09T02:31:05.789Z,100.5
2019-05-09T02:32:05.150Z,101.9
2019-05-09T02:33:05.525Z,100.1
2019-05-09T02:34:05.546Z,100.5
2019-05-09T02:35:05.459Z,100.1
2019-05-09T02:36:03.406Z,101
2019-05-09T02:37:03.233Z,101
2019-05-09T02:38:03.518Z,99.4
2019-05-09T02:39:03.264Z,98.9
2019-05-09T02:40:03.286Z,99.4
2019-05-09T02:41:02.936Z,98
2019-05-09T02:42:14.695Z,98.2
2019-05-09T02:43:03.130Z,99.4
2019-05-09T02:44:03.812Z,98.2
2019-05-09T02:45:03.454Z,98.4
2019-05-09T02:46:03.860Z,98
2019-05-09T02:47:03.016Z,96.6
2019-05-09T02:48:03.498Z,97.7
2019-05-09T02:49:03.911Z,98
2019-05-09T02:50:03.805Z,98.7
2019-05-09T02:51:03.809Z,97.7
2019-05-09T02:52:03.832Z,99.4
2019-05-09T02:53:03.795Z,98.4
2019-05-09T02:54:03.612Z,98.9
2019-05-09T02:55:03.826Z,98.7
2019-05-09T02:56:03.494Z,98.9
2019-05-09T02:57:03.767Z,100.3
2019-05-09T02:58:03.609Z,98.7
2019-05-09T02:59:03.683Z,99.1
2019-05-09T03:00:03.998Z,98.2
2019-05-09T03:01:03.476Z,98.4
2019-05-09T03:02:03.520Z,98
2019-05-09T03:03:03.426Z,95.9
2019-05-09T03:04:03.361Z,96.3
2019-05-09T03:05:02.962Z,94.5
2019-05-09T03:06:03.688Z,94.5
2019-05-09T03:07:03.388Z,93.1
2019-05-09T03:08:03.399Z,92.1
2019-05-09T03:09:03.482Z,92.4
2019-05-09T03:10:03.800Z,92.4
2019-05-09T03:11:03.415Z,90.5
2019-05-09T03:12:39.964Z,91.2
2019-05-09T03:14:03.035Z,90.7
2019-05-09T03:15:02.955Z,91.4
2019-05-09T03:16:03.178Z,90
2019-05-09T03:17:03.245Z,91
2019-05-09T03:18:03.046Z,91.9
2019-05-09T03:19:04.019Z,91.4
2019-05-09T03:20:03.827Z,90.5
2019-05-09T03:21:03.014Z,91
2019-05-09T03:22:04.017Z,90.3
2019-05-09T03:23:02.965Z,90.7
2019-05-09T03:24:03.939Z,90.3
2019-05-09T03:25:03.927Z,91.4
2019-05-09T03:26:03.822Z,90.5
2019-05-09T03:27:03.624Z,90.5
2019-05-09T03:28:03.692Z,90.7
2019-05-09T03:29:03.532Z,90.5
2019-05-09T03:30:03.660Z,89.1
2019-05-09T03:31:03.778Z,89.1
2019-05-09T03:32:03.557Z,89.3
2019-05-09T03:33:03.349Z,88.6
2019-05-09T03:34:03.587Z,89.8
2019-05-09T03:35:03.328Z,90.7
2019-05-09T03:36:03.379Z,90.5
2019-05-09T03:37:03.292Z,89.8
2019-05-09T03:38:03.645Z,90.3
2019-05-09T03:39:03.312Z,89.3
2019-05-09T03:40:03.492Z,90
2019-05-09T03:41:03.260Z,89.1
2019-05-09T03:42:03.107Z,89.3
2019-05-09T03:43:03.109Z,90.5
2019-05-09T03:44:03.032Z,89.6
2019-05-09T03:45:03.297Z,90.5
2019-05-09T03:46:02.990Z,90.3
2019-05-09T03:47:03.179Z,91
2019-05-09T03:48:03.888Z,89.8
2019-05-09T03:49:03.209Z,89.6
2019-05-09T03:50:03.268Z,89.6
2019-05-09T03:51:03.308Z,90
2019-05-09T03:52:03.001Z,89.6
2019-05-09T03:53:03.126Z,90.7
2019-05-09T03:54:03.189Z,90
2019-05-09T03:55:04.146Z,89.3
2019-05-09T03:56:03.055Z,89.3
2019-05-09T03:57:03.870Z,90.3
2019-05-09T03:58:03.167Z,87.7
2019-05-09T03:59:03.845Z,88.6
2019-05-09T04:00:04.005Z,87
2019-05-09T04:01:04.044Z,87.5
2019-05-09T04:02:02.977Z,87.7
2019-05-09T04:03:03.582Z,87.5
2019-05-09T04:04:03.873Z,88.9
2019-05-09T04:05:03.915Z,88.4
2019-05-09T04:06:03.750Z,88.9
2019-05-09T04:07:03.764Z,89.3
2019-05-09T04:08:03.441Z,90.3
2019-05-09T04:09:03.676Z,90
2019-05-09T04:10:03.566Z,91.4
2019-05-09T04:11:03.569Z,91
2019-05-09T04:12:03.473Z,91
2019-05-09T04:13:03.664Z,93.3
2019-05-09T04:14:03.062Z,92.8
2019-05-09T04:15:03.822Z,93.5
2019-05-09T04:16:03.497Z,93.1
2019-05-09T04:17:03.802Z,92.6
2019-05-09T04:18:03.490Z,95.4
2019-05-09T04:19:02.991Z,94.7
2019-05-09T04:20:03.486Z,95.2
2019-05-09T04:21:03.182Z,94
2019-05-09T04:22:03.258Z,94.7
2019-05-09T04:23:02.969Z,93.5
2019-05-09T04:24:03.195Z,95.2
2019-05-09T04:25:03.171Z,94.5
2019-05-09T04:26:03.009Z,94.2
2019-05-09T04:27:03.914Z,94.9
2019-05-09T04:28:03.008Z,92.8
2019-05-09T04:29:03.833Z,95.6
2019-05-09T04:30:09.734Z,95.4
2019-05-09T04:31:03.723Z,97.7
2019-05-09T04:32:03.825Z,95.6
2019-05-09T04:33:02.999Z,97.5
2019-05-09T04:34:03.603Z,96.3
2019-05-09T04:35:03.580Z,97.7
2019-05-09T04:36:03.786Z,95.2
2019-05-09T04:37:03.715Z,95.9
2019-05-09T04:38:03.419Z,95.4
2019-05-09T04:39:03.566Z,96.8
2019-05-09T04:40:03.823Z,95.4
2019-05-09T04:41:03.436Z,95.9
2019-05-09T04:42:08.724Z,94.5
2019-05-09T04:43:36.824Z,94.9
2019-05-09T04:44:21.962Z,94.2
2019-05-09T04:45:10.400Z,93.3
2019-05-09T04:46:03.491Z,95.4
2019-05-09T04:47:04.294Z,94.9
2019-05-09T04:48:03.048Z,94.2
2019-05-09T04:49:03.072Z,95.9
2019-05-09T04:50:03.401Z,96.1
2019-05-09T04:51:02.929Z,95.9
2019-05-09T04:52:02.889Z,95.4
2019-05-09T04:53:03.190Z,94.7
2019-05-09T04:54:03.285Z,96.6
2019-05-09T04:55:03.986Z,96.6
2019-05-09T04:56:03.059Z,98.4
2019-05-09T04:57:03.231Z,98.7
2019-05-09T04:58:03.803Z,98.2
2019-05-09T04:59:03.902Z,99.4
2019-05-09T05:00:04.033Z,98.7
2019-05-09T05:01:03.900Z,97.7
2019-05-09T05:02:03.499Z,98.7
2019-05-09T05:03:03.989Z,96.8
2019-05-09T05:04:03.709Z,97.7
2019-05-09T05:05:03.826Z,98
2019-05-09T05:06:03.671Z,98
2019-05-09T05:07:03.843Z,98.7
2019-05-09T05:08:03.662Z,98.2
2019-05-09T05:09:03.650Z,100.5
2019-05-09T05:10:03.723Z,99.4
2019-05-09T05:11:03.515Z,100.5
2019-05-09T05:12:03.569Z,99.8
2019-05-09T05:13:03.553Z,100.1
2019-05-09T05:14:03.464Z,100.3
2019-05-09T05:15:03.634Z,99.1
2019-05-09T05:16:03.496Z,98
2019-05-09T05:17:11.798Z,97
2019-05-09T05:18:03.285Z,97
2019-05-09T05:19:03.052Z,96.6
2019-05-09T05:20:03.738Z,97.3
2019-05-09T05:21:03.148Z,96.3
2019-05-09T05:22:03.287Z,97.3
2019-05-09T05:23:03.193Z,96.1
2019-05-09T05:24:03.523Z,98
2019-05-09T05:25:03.242Z,98
2019-05-09T05:26:02.989Z,96.1
2019-05-09T05:27:03.195Z,97.5
2019-05-09T05:28:02.975Z,96.6
2019-05-09T05:29:03.917Z,96.6
2019-05-09T05:30:03.854Z,97.5
2019-05-09T05:31:03.406Z,95.9
2019-05-09T05:32:03.884Z,95.2
2019-05-09T05:33:03.650Z,94.7
2019-05-09T05:34:03.743Z,93.8
2019-05-09T05:35:04.033Z,94.9
2019-05-09T05:36:04.008Z,95.9
2019-05-09T05:37:03.764Z,95.9
2019-05-09T05:38:03.874Z,96.1
2019-05-09T05:39:03.473Z,98.9
2019-05-09T05:40:03.620Z,97.5
2019-05-09T05:41:03.462Z,98.2
2019-05-09T05:42:03.744Z,99.8
2019-05-09T05:43:03.539Z,100.1
2019-05-09T05:44:03.625Z,100.1
2019-05-09T05:45:03.261Z,99.1
2019-05-09T05:46:03.692Z,100.3
2019-05-09T05:47:03.445Z,98.2
2019-05-09T05:48:03.309Z,98.7
2019-05-09T05:49:03.585Z,98.7
2019-05-09T05:50:03.700Z,100.5
2019-05-09T05:51:03.426Z,99.1
2019-05-09T05:52:03.368Z,101
2019-05-09T05:53:03.699Z,101.2
2019-05-09T05:54:03.454Z,99.6
2019-05-09T05:55:03.718Z,101.2
2019-05-09T05:56:03.374Z,100.8
2019-05-09T05:57:03.385Z,101.2
2019-05-09T05:58:03.585Z,100.8
2019-05-09T05:59:03.354Z,100.8
2019-05-09T06:00:03.930Z,101.2
2019-05-09T06:01:05.166Z,101.9
2019-05-09T06:02:03.171Z,103.6
2019-05-09T06:03:03.107Z,103.1
2019-05-09T06:04:03.321Z,103.6
2019-05-09T06:05:03.113Z,104.3
2019-05-09T06:06:03.054Z,103.8
2019-05-09T06:07:03.108Z,104.7
2019-05-09T06:08:03.977Z,103.8
2019-05-09T06:09:03.735Z,103.1
2019-05-09T06:10:03.936Z,101.5
2019-05-09T06:11:03.656Z,101.9
2019-05-09T06:12:03.845Z,101.2
2019-05-09T06:13:03.723Z,101.5
2019-05-09T06:14:12.195Z,102.4
2019-05-09T06:15:04.012Z,102.4
2019-05-09T06:16:03.692Z,101.5
2019-05-09T06:17:03.714Z,102.6
2019-05-09T06:18:03.806Z,102.4
2019-05-09T06:19:03.720Z,102.9
2019-05-09T06:20:03.580Z,104.5
2019-05-09T06:21:03.517Z,103.8
2019-05-09T06:22:03.445Z,103.3
2019-05-09T06:23:03.430Z,102.9
2019-05-09T06:24:03.480Z,102.9
2019-05-09T06:25:03.723Z,102.4
2019-05-09T06:26:03.410Z,103.3
2019-05-09T06:27:10.661Z,101
2019-05-09T06:28:03.055Z,102.9
2019-05-09T06:29:03.301Z,101.2
2019-05-09T06:30:03.335Z,103.8
2019-05-09T06:31:03.463Z,101.7
2019-05-09T06:32:03.277Z,103.3
2019-05-09T06:33:08.199Z,103.1
2019-05-09T06:34:02.983Z,102.9
2019-05-09T06:35:03.940Z,102.4
2019-05-09T06:36:02.985Z,101.9
2019-05-09T06:37:03.808Z,101.7
2019-05-09T06:38:03.045Z,100.1
2019-05-09T06:39:04.376Z,100.5
2019-05-09T06:40:03.336Z,98.4
2019-05-09T06:41:03.899Z,98
2019-05-09T06:42:03.815Z,97.5
2019-05-09T06:43:03.738Z,97.7
2019-05-09T06:44:20.993Z,96.6
2019-05-09T06:46:03.839Z,97
2019-05-09T06:47:03.720Z,96.1
2019-05-09T06:48:03.517Z,98.2
2019-05-09T06:49:32.205Z,96.3
2019-05-09T06:51:03.500Z,96.3
2019-05-09T06:52:03.290Z,97
2019-05-09T06:53:03.537Z,96.3
2019-05-09T06:54:03.435Z,94.9
2019-05-09T06:55:03.890Z,94.7
2019-05-09T06:56:03.145Z,94.9
2019-05-09T06:57:03.302Z,95.2
2019-05-09T06:58:03.142Z,94.9
2019-05-09T06:59:03.028Z,95.2
2019-05-09T07:00:03.352Z,94.9
2019-05-09T07:01:03.542Z,94.5
2019-05-09T07:02:04.116Z,94.2
2019-05-09T07:03:03.865Z,92.4
2019-05-09T07:04:03.139Z,91.4
2019-05-09T07:05:03.223Z,92.8
2019-05-09T07:06:03.816Z,91
2019-05-09T07:07:03.802Z,92.6
2019-05-09T07:08:03.796Z,91.4
2019-05-09T07:09:03.804Z,91.7
2019-05-09T07:10:04.185Z,91.7
2019-05-09T07:11:03.849Z,91.4
2019-05-09T07:12:03.046Z,91.7
2019-05-09T07:13:04.028Z,92.6
2019-05-09T07:14:03.947Z,91.7
2019-05-09T07:15:04.131Z,93.3
2019-05-09T07:16:03.688Z,91
2019-05-09T07:17:03.794Z,93.3
2019-05-09T07:18:03.720Z,92.8
2019-05-09T07:19:03.027Z,94.5
2019-05-09T07:20:03.783Z,92.8
2019-05-09T07:21:03.764Z,93.5
2019-05-09T07:22:03.836Z,93.3
2019-05-09T07:23:04.095Z,93.8
2019-05-09T07:24:03.651Z,95.2
2019-05-09T07:25:11.662Z,94.2
2019-05-09T07:26:03.917Z,94.7
2019-05-09T07:27:03.495Z,92.8
2019-05-09T07:28:03.530Z,93.8
2019-05-09T07:29:03.763Z,92.6
2019-05-09T07:30:03.721Z,94.5
2019-05-09T07:31:03.486Z,92.4
2019-05-09T07:32:03.591Z,91.7
2019-05-09T07:33:03.013Z,92.8
2019-05-09T07:34:03.127Z,93.1
2019-05-09T07:35:03.791Z,94.2
2019-05-09T07:36:03.421Z,92.6
2019-05-09T07:37:03.195Z,95.4
2019-05-09T07:38:03.131Z,94
2019-05-09T07:39:03.148Z,94.7
2019-05-09T07:40:03.898Z,94
2019-05-09T07:41:03.101Z,94.2
2019-05-09T07:42:03.005Z,93.8
2019-05-09T07:43:03.393Z,93.8
2019-05-09T07:44:03.960Z,93.5
2019-05-09T07:45:04.185Z,94
2019-05-09T07:46:02.651Z,93.1
2019-05-09T07:47:04.085Z,93.3
2019-05-09T07:48:03.894Z,94.5
2019-05-09T07:49:04.150Z,92.8
2019-05-09T07:50:03.323Z,94
2019-05-09T07:51:03.727Z,93.1
2019-05-09T07:52:10.829Z,94
2019-05-09T07:53:03.662Z,93.1
2019-05-09T07:54:29.541Z,94
2019-05-09T07:56:03.562Z,94.7
2019-05-09T07:57:03.412Z,94.5
2019-05-09T07:58:03.594Z,95.9
2019-05-09T07:59:03.414Z,95.9
2019-05-09T08:00:03.211Z,95.2
2019-05-09T08:01:03.162Z,98
2019-05-09T08:02:03.641Z,98.2
2019-05-09T08:03:03.655Z,98.2
2019-05-09T08:04:03.073Z,99.1
2019-05-09T08:05:03.068Z,99.4
2019-05-09T08:06:03.254Z,99.4
2019-05-09T08:07:03.160Z,101
2019-05-09T08:08:04.088Z,99.4
2019-05-09T08:09:02.983Z,101
2019-05-09T08:10:03.311Z,100.8
2019-05-09T08:11:03.102Z,100.5
2019-05-09T08:12:03.723Z,100.8
2019-05-09T08:13:03.106Z,101.7
2019-05-09T08:14:03.079Z,101.2
2019-05-09T08:15:20.582Z,101.7
2019-05-09T08:17:03.954Z,100.8
2019-05-09T08:18:03.762Z,100.1
2019-05-09T08:19:03.563Z,101
2019-05-09T08:20:03.839Z,99.1
2019-05-09T08:21:03.730Z,101
2019-05-09T08:22:03.721Z,99.4
2019-05-09T08:23:03.616Z,100.5
2019-05-09T08:24:03.617Z,99.8
2019-05-09T08:25:03.619Z,99.4
2019-05-09T08:26:05.019Z,100.1
2019-05-09T08:27:03.422Z,100.5
2019-05-09T08:28:03.729Z,101
2019-05-09T08:29:03.471Z,98.7
2019-05-09T08:30:03.932Z,101.7
2019-05-09T08:31:03.403Z,101
2019-05-09T08:32:03.318Z,100.5
2019-05-09T08:33:03.652Z,101.2
2019-05-09T08:34:03.197Z,101.9
2019-05-09T08:35:03.997Z,101.7
2019-05-09T08:36:03.398Z,100.8
2019-05-09T08:37:03.355Z,102.9
2019-05-09T08:38:03.344Z,103.1
2019-05-09T08:39:03.362Z,102.9
2019-05-09T08:40:03.416Z,105.4
2019-05-09T08:41:03.400Z,106.1
2019-05-09T08:42:03.186Z,105.4
2019-05-09T08:43:03.012Z,107.8
2019-05-09T08:44:03.111Z,108.7
2019-05-09T08:45:03.208Z,107.8
2019-05-09T08:46:03.978Z,108.7
2019-05-09T08:47:03.592Z,108.2
2019-05-09T08:48:03.832Z,106.8
2019-05-09T08:49:03.903Z,108
2019-05-09T08:50:04.075Z,104.7
2019-05-09T08:51:03.686Z,108.5
2019-05-09T08:52:20.201Z,107.1
2019-05-09T08:54:03.628Z,108.2
2019-05-09T08:55:03.707Z,108.9
2019-05-09T08:56:03.750Z,106.1
2019-05-09T08:57:03.742Z,106.4
2019-05-09T08:58:03.579Z,108
2019-05-09T08:59:03.406Z,105.2
2019-05-09T09:00:03.780Z,106.8
2019-05-09T09:01:04.894Z,105.2
2019-05-09T09:02:22.781Z,107.8
2019-05-09T09:04:03.189Z,106.1
2019-05-09T09:05:03.363Z,104.7
2019-05-09T09:06:03.027Z,103.8
2019-05-09T09:07:02.986Z,105.4
2019-05-09T09:08:02.943Z,101.9
2019-05-09T09:09:03.048Z,103.1
2019-05-09T09:10:03.970Z,101.9
2019-05-09T09:11:03.430Z,101.5
2019-05-09T09:12:03.094Z,100.8
2019-05-09T09:13:03.344Z,101.5
2019-05-09T09:14:03.819Z,100.8
2019-05-09T09:15:03.876Z,102.6
2019-05-09T09:16:22.851Z,98.9
2019-05-09T09:18:03.723Z,99.4
2019-05-09T09:19:03.872Z,99.8
2019-05-09T09:20:03.935Z,101.5
2019-05-09T09:21:03.940Z,100.1
2019-05-09T09:22:03.751Z,100.1
2019-05-09T09:23:03.402Z,100.3
2019-05-09T09:24:03.803Z,99.1
2019-05-09T09:25:03.548Z,99.4
2019-05-09T09:26:03.515Z,99.8
2019-05-09T09:27:03.393Z,99.1
2019-05-09T09:28:03.430Z,98.7
2019-05-09T09:29:03.085Z,98.7
2019-05-09T09:30:25.544Z,98
2019-05-09T09:32:03.038Z,99.6
2019-05-09T09:33:03.390Z,97.7
2019-05-09T09:34:03.037Z,98.4
2019-05-09T09:35:03.080Z,99.8
2019-05-09T09:36:03.132Z,98.2
2019-05-09T09:37:11.752Z,98.7
2019-05-09T09:38:03.133Z,98
2019-05-09T09:39:03.460Z,94.9
2019-05-09T09:40:03.131Z,96.8
2019-05-09T09:41:03.061Z,94.9
2019-05-09T09:42:02.950Z,95.4
2019-05-09T09:43:02.986Z,96.3
2019-05-09T09:44:03.975Z,95.9
2019-05-09T09:45:03.781Z,94.9
2019-05-09T09:46:15.093Z,96.3
2019-05-09T09:48:03.543Z,95.6
2019-05-09T09:49:03.414Z,97.5
2019-05-09T09:50:03.866Z,95.4
2019-05-09T09:51:03.456Z,97
2019-05-09T09:52:03.094Z,94.7
2019-05-09T09:53:03.583Z,94.7
2019-05-09T09:54:03.555Z,93.5
2019-05-09T09:55:03.833Z,92.4
2019-05-09T09:56:03.751Z,92.1
2019-05-09T09:57:03.426Z,92.4
2019-05-09T09:58:03.345Z,93.1
2019-05-09T09:59:03.151Z,93.8
2019-05-09T10:00:03.379Z,93.1
2019-05-09T10:01:04.243Z,93.5
2019-05-09T10:02:03.295Z,92.6
2019-05-09T10:03:03.330Z,92.8
2019-05-09T10:04:24.707Z,91.4
2019-05-09T10:06:03.062Z,93.8
2019-05-09T10:07:03.277Z,94.2
2019-05-09T10:08:03.122Z,95.2
2019-05-09T10:09:03.367Z,93.3
2019-05-09T10:10:03.404Z,94.7
2019-05-09T10:11:03.285Z,94.9
2019-05-09T10:12:03.431Z,94
2019-05-09T10:13:04.599Z,94
2019-05-09T10:14:02.988Z,95.9
2019-05-09T10:15:03.700Z,97.5
2019-05-09T10:16:02.963Z,95.4
2019-05-09T10:17:02.994Z,97.5
2019-05-09T10:18:03.954Z,96.3
2019-05-09T10:19:03.642Z,95.9
2019-05-09T10:20:03.799Z,97.7
2019-05-09T10:21:03.700Z,94.7
2019-05-09T10:22:03.105Z,97
2019-05-09T10:23:21.938Z,95.6
2019-05-09T10:25:03.528Z,95.9
2019-05-09T10:26:03.245Z,98.9
2019-05-09T10:27:03.468Z,98.4
2019-05-09T10:28:03.353Z,99.4
2019-05-09T10:29:03.478Z,100.1
2019-05-09T10:30:03.264Z,98.9
2019-05-09T10:31:03.467Z,98
2019-05-09T10:32:03.190Z,99.8
2019-05-09T10:33:03.202Z,98.7
2019-05-09T10:34:03.080Z,100.5
2019-05-09T10:35:03.509Z,100.1
2019-05-09T10:36:08.938Z,101.2
2019-05-09T10:37:03.158Z,98.7
2019-05-09T10:38:03.828Z,100.8
2019-05-09T10:39:03.030Z,100.3
2019-05-09T10:40:03.182Z,101.2
2019-05-09T10:41:03.176Z,100.8
2019-05-09T10:42:03.112Z,100.1
2019-05-09T10:43:03.810Z,101
2019-05-09T10:44:03.108Z,100.1
2019-05-09T10:45:03.973Z,99.8
2019-05-09T10:46:03.049Z,99.4
2019-05-09T10:47:03.647Z,99.6
2019-05-09T10:48:03.102Z,98.7
2019-05-09T10:49:03.968Z,98.9
2019-05-09T10:50:03.682Z,98.2
2019-05-09T10:51:10.875Z,99.4
2019-05-09T10:52:03.713Z,100.5
2019-05-09T10:53:03.774Z,99.1
2019-05-09T10:54:03.643Z,101.2
2019-05-09T10:55:03.643Z,99.8
2019-05-09T10:56:03.614Z,101.5
2019-05-09T10:57:03.256Z,101.2
2019-05-09T10:58:03.580Z,99.4
2019-05-09T10:59:03.650Z,99.8
2019-05-09T11:00:04.209Z,98.2
2019-05-09T11:01:03.567Z,100.5
2019-05-09T11:02:03.418Z,99.6
2019-05-09T11:03:03.391Z,101.9
2019-05-09T11:04:03.410Z,101
2019-05-09T11:05:03.540Z,101.9
2019-05-09T11:06:03.267Z,101.7
2019-05-09T11:07:03.359Z,100.1
2019-05-09T11:08:03.100Z,101
2019-05-09T11:09:02.961Z,102.2
2019-05-09T11:10:03.336Z,99.4
2019-05-09T11:11:09.709Z,103.1
2019-05-09T11:12:03.272Z,101.9
2019-05-09T11:13:03.029Z,101.7
2019-05-09T11:14:03.147Z,102.6
2019-05-09T11:15:03.021Z,101.9
2019-05-09T11:16:03.050Z,102.9
2019-05-09T11:17:22.119Z,101.7
2019-05-09T11:18:03.748Z,103.1
2019-05-09T11:19:03.949Z,101.7
2019-05-09T11:20:03.852Z,102.4
2019-05-09T11:21:03.886Z,101.5
2019-05-09T11:22:03.584Z,102.2
2019-05-09T11:23:03.631Z,101.5
2019-05-09T11:24:03.230Z,100.8
2019-05-09T11:25:03.611Z,100.8
2019-05-09T11:26:03.440Z,101
2019-05-09T11:27:03.726Z,99.8
2019-05-09T11:28:18.272Z,100.8
2019-05-09T11:30:03.754Z,101.2
2019-05-09T11:31:03.581Z,101.7
2019-05-09T11:32:03.495Z,102.9
2019-05-09T11:33:03.272Z,101.5
2019-05-09T11:34:03.506Z,100.8
2019-05-09T11:35:03.380Z,100.1
2019-05-09T11:36:03.008Z,99.4
2019-05-09T11:37:03.050Z,99.8
2019-05-09T11:38:03.280Z,100.3
2019-05-09T11:39:03.745Z,100.1
2019-05-09T11:40:03.289Z,100.1
2019-05-09T11:41:02.953Z,99.1
2019-05-09T11:42:03.127Z,99.4
2019-05-09T11:43:04.034Z,100.1
2019-05-09T11:44:03.137Z,100.5
2019-05-09T11:45:03.075Z,101.2
2019-05-09T11:46:02.970Z,100.3
2019-05-09T11:47:03.901Z,101.7
2019-05-09T11:48:03.424Z,101.7
2019-05-09T11:49:03.762Z,101.5
2019-05-09T11:50:03.733Z,100.8
2019-05-09T11:51:03.785Z,100.5
2019-05-09T11:52:03.564Z,98.9
2019-05-09T11:53:03.633Z,99.4
2019-05-09T11:54:03.479Z,101
2019-05-09T11:55:03.660Z,99.6
2019-05-09T11:56:03.546Z,102.9
2019-05-09T11:57:03.775Z,101.5
2019-05-09T11:58:03.454Z,102.2
2019-05-09T11:59:03.469Z,102.2
2019-05-09T12:00:03.408Z,101.7
2019-05-09T12:01:04.181Z,102.4
2019-05-09T12:02:03.656Z,101.7
2019-05-09T12:03:03.309Z,99.4
2019-05-09T12:04:03.233Z,100.3
2019-05-09T12:05:03.291Z,99.8
2019-05-09T12:06:03.491Z,98.9
2019-05-09T12:07:02.845Z,98.7
2019-05-09T12:08:04.071Z,100.1
2019-05-09T12:09:03.499Z,100.5
2019-05-09T12:10:03.378Z,98.9
2019-05-09T12:11:03.254Z,99.8
2019-05-09T12:12:03.110Z,98.7
2019-05-09T12:13:03.106Z,99.4
2019-05-09T12:14:03.677Z,97.5
2019-05-09T12:15:02.716Z,98
2019-05-09T12:16:03.987Z,98.2
2019-05-09T12:17:03.884Z,97.5
2019-05-09T12:18:11.975Z,96.6
2019-05-09T12:19:03.863Z,97.3
2019-05-09T12:20:13.942Z,97.5
2019-05-09T12:21:03.837Z,98.4
2019-05-09T12:22:03.855Z,100.1
2019-05-09T12:23:03.477Z,98.9
2019-05-09T12:24:03.671Z,98.2
2019-05-09T12:25:03.522Z,99.6
2019-05-09T12:26:03.480Z,98.9
2019-05-09T12:27:03.540Z,99.4
2019-05-09T12:28:03.287Z,100.3
2019-05-09T12:29:03.675Z,98.9
2019-05-09T12:30:03.642Z,97.3
2019-05-09T12:31:03.545Z,97.7
2019-05-09T12:32:03.776Z,97.5
2019-05-09T12:33:03.558Z,98.9
2019-05-09T12:34:03.451Z,98.7
2019-05-09T12:35:03.517Z,99.1
2019-05-09T12:36:03.354Z,99.1
2019-05-09T12:37:03.317Z,101.5
2019-05-09T12:38:03.441Z,100.5
2019-05-09T12:39:03.589Z,101.7
2019-05-09T12:40:03.612Z,100.1
2019-05-09T12:41:03.587Z,101
2019-05-09T12:42:03.554Z,100.3
2019-05-09T12:43:03.361Z,100.3
2019-05-09T12:44:03.407Z,101
2019-05-09T12:45:03.918Z,99.8
2019-05-09T12:46:03.017Z,99.1
2019-05-09T12:47:03.255Z,100.1
2019-05-09T12:48:19.538Z,101.2
2019-05-09T12:49:03.101Z,100.5
2019-05-09T12:50:03.945Z,101.2
2019-05-09T12:51:03.098Z,99.6
2019-05-09T12:52:03.395Z,99.8
2019-05-09T12:53:03.935Z,98.4
2019-05-09T12:54:03.661Z,99.8
2019-05-09T12:55:03.234Z,97.5
2019-05-09T12:56:03.673Z,98
2019-05-09T12:57:03.961Z,99.1
2019-05-09T12:58:04.473Z,98
2019-05-09T12:59:03.794Z,98.7
2019-05-09T13:00:04.091Z,96.8
2019-05-09T13:01:03.633Z,96.8
2019-05-09T13:02:04.140Z,96.6
2019-05-09T13:03:03.862Z,96.3
2019-05-09T13:04:03.776Z,96.1
2019-05-09T13:05:04.099Z,99.1
2019-05-09T13:06:03.675Z,95.4
2019-05-09T13:07:03.363Z,97.5
2019-05-09T13:08:03.736Z,98.2
2019-05-09T13:09:03.323Z,97.7
2019-05-09T13:10:03.703Z,96.8
2019-05-09T13:11:03.371Z,96.6
2019-05-09T13:12:03.336Z,96.1
2019-05-09T13:13:03.167Z,97.7
2019-05-09T13:14:03.032Z,95.9
2019-05-09T13:15:03.638Z,98.7
2019-05-09T13:16:03.221Z,97.7
2019-05-09T13:17:03.871Z,98.7
2019-05-09T13:18:03.010Z,98.4
2019-05-09T13:19:03.383Z,98
2019-05-09T13:20:03.205Z,98
2019-05-09T13:21:03.136Z,99.4
2019-05-09T13:22:03.189Z,98.9
2019-05-09T13:23:02.965Z,99.1
2019-05-09T13:24:02.999Z,98.7
2019-05-09T13:25:03.791Z,99.8
2019-05-09T13:26:02.749Z,100.1
2019-05-09T13:27:03.830Z,99.6
2019-05-09T13:28:03.674Z,98.9